Garden Spring, Nevada Weather observations

Data are for 10 minute period ending at time listed.
 Day   Time    Ave.   Ave.  Ave.  Vector   Max.   Stn.    Total    Solar   Ave.  
  of    of     Air    Rel.  Wind   Wind    Wind   Baro.  Precip.   Rad.    Soil  
Year   Day     Temp.  Hum.  Speed  Dir.    Gust   Pres.                    Temp. 
2026   (PST)    F      %     mph   deg.    mph     mb.     in.     W/m2     F    
--------------------------------------------------------------------------------- 
 126   20:20   60.9    17    4.2   127      7.7   854.3    0.00       0    72.0  
 126   20:30   61.5    16    5.0    97      8.2   854.5    0.00       0    71.9  
 126   20:40   61.5    16    4.7    80      8.7   854.5    0.00       0    71.8  
 126   20:50   61.4    15    5.6    60      9.8   854.6    0.00       0    71.7  
 126   21:00   60.4    16    3.5   298      7.2   854.6    0.00       0    71.5  
 126   21:10   58.5    18    3.3   253      4.8   854.6    0.00       0    71.1  
 126   21:20   56.4    20    3.8   259      6.2   854.6    0.00       0    70.8  
 126   21:30   54.3    22    4.6   260      5.9   854.6    0.00       0    70.5  
 126   21:40   53.5    22    4.5   252      6.0   854.6    0.00       0    70.3  
 126   21:50   54.8    21    3.0   234      4.6   854.7    0.00       0    70.1  
 126   22:00   56.1    20    4.9   236      8.2   854.7    0.00       0    70.0  
 126   22:10   58.4    17    4.3   212      6.4   854.8    0.00       0    70.0  
 126   22:20   57.4    18    3.3   196      6.0   854.9    0.00       0    69.9  
 126   22:30   56.9    18    3.8   199      6.8   855.0    0.00       0    69.7  
 126   22:40   55.4    20    4.2   288      6.0   855.1    0.00       0    69.5  
 126   22:50   54.1    21    4.6   272      6.2   855.1    0.00       0    69.2  
 126   23:00   53.3    22    5.6   268      7.3   855.0    0.00       0    69.0  
 126   23:10   53.0    22    5.3   274      6.4   855.0    0.00       0    68.9  
 126   23:20   52.0    24    4.9   267      6.0   854.9    0.00       0    68.6  
 126   23:30   54.0    22    4.9   257      6.1   854.9    0.00       0    68.5  
 126   23:40   55.6    20    5.3   282      7.3   854.8    0.00       0    68.5  
 126   23:50   55.9    20    4.9   266      7.3   854.8    0.00       0    68.4  
 127    0:00   53.9    23    4.3   266      5.8   854.8    0.00       0    68.2  
 127    0:10   53.3    23    4.6   298      6.2   854.8    0.00       0    67.9  
 127    0:20   51.3    25    4.4   272      5.6   854.7    0.00       0    67.7  
 127    0:30   53.4    23    5.3   276      7.4   854.7    0.00       0    67.5  
 127    0:40   54.1    23    5.3   269      7.8   854.7    0.00       0    67.5  
 127    0:50   54.4    22    4.7   293      7.0   854.7    0.00       0    67.4  
 127    1:00   53.8    23    4.7   296      7.0   854.7    0.00       0    67.2  
 127    1:10   53.8    24    4.7   275      6.6   854.6    0.00       0    67.0  
 127    1:20   53.6    24    4.2   272      5.4   854.6    0.00       0    66.8  
 127    1:30   52.6    25    4.8   275      6.5   854.6    0.00       0    66.6  
 127    1:40   52.8    25    5.0   269      7.5   854.7    0.00       0    66.5  
 127    1:50   52.6    25    4.5   264      6.8   854.7    0.00       0    66.3  
 127    2:00   53.0    25    5.4   280      6.8   854.6    0.00       0    66.2  
 127    2:10   53.5    24    5.2   276      6.5   854.7    0.00       0    66.1  
 127    2:20   52.3    25    4.4   284      5.2   854.7    0.00       0    65.9  
 127    2:30   52.2    26    4.6   284      6.3   854.7    0.00       0    65.8  
 127    2:40   52.0    26    4.2   268      6.1   854.7    0.00       0    65.6  
 127    2:50   51.7    26    4.6   269      5.7   854.8    0.00       0    65.4  
 127    3:00   52.3    25    4.9   268      6.5   854.8    0.00       0    65.3  
 127    3:10   51.8    26    5.3   287      6.6   854.8    0.00       0    65.2  
 127    3:20   50.8    27    5.5   291      6.8   854.8    0.00       0    65.0  
 127    3:30   53.2    24    4.9   277      6.8   854.8    0.00       0    65.0  
 127    3:40   51.8    26    5.2   293      7.0   854.8    0.00       0    64.9  
 127    3:50   53.2    24    5.4   286      7.1   854.8    0.00       0    64.7  
 127    4:00   52.9    25    4.1   271      5.5   854.8    0.00       0    64.6  
 127    4:10   51.4    26    4.0   284      4.8   854.8    0.00       0    64.4  
 127    4:20   51.3    26    4.1   280      5.4   854.8    0.00       0    64.2  
 127    4:30   49.7    28    4.2   270      6.2   854.8    0.00       1    64.0  
 127    4:40   49.3    28    4.8   280      6.2   854.8    0.00       4    63.9  
 127    4:50   49.9    27    4.4   272      5.5   854.9    0.00      11    63.8  
 127    5:00   50.6    26    4.1   281      6.1   854.9    0.00      27    63.8  
 127    5:10   51.6    26    4.5   271      5.7   855.0    0.00      53    63.8  
 127    5:20   53.6    25    4.8   264      6.3   854.9    0.00      87    64.1  
 127    5:30   56.5    23    4.4   270      6.0   855.0    0.00     125    64.6  
 127    5:40   60.0    22    3.1   281      6.0   855.1    0.00     157    65.0  
 127    5:50   62.4    20    2.5   279      4.4   855.1    0.00     190    65.1  
 127    6:00   64.7    18    1.6    46      3.9   855.2    0.00     225    65.2  
 127    6:10   66.8    17    1.5    51      3.0   855.3    0.00     261    65.1  
 127    6:20   67.6    14    1.9    60      3.5   855.4    0.00     297    64.9  
 127    6:30   68.1    13    1.6   122      5.4   855.4    0.00     334    64.8  
 127    6:40   67.9    13    3.0    56      5.9   855.4    0.00     372    64.7  
 127    6:50   69.6    12    2.8    48      5.4   855.4    0.00     409    64.2  
 127    7:00   69.2    12    2.5   134      5.7   855.5    0.00     444    64.0  
 127    7:10   69.2    12    2.9   131      5.3   855.5    0.00     481    63.9  
 127    7:20   69.5    12    3.1   126      5.4   855.4    0.00     518    64.0  
 127    7:30   69.3    12    3.4   102      6.2   855.4    0.00     553    63.8  
 127    7:40   70.7    12    2.5    84      6.8   855.4    0.00     587    63.8  
 127    7:50   71.1    12    3.5    65      8.8   855.2    0.00     622    63.8  
 127    8:00   71.9    12    3.2    55      6.8   855.1    0.00     655    63.8  
 127    8:10   72.6    12    3.1   131      8.0   855.1    0.00     687    63.8  
 127    8:20   71.7    12    4.5   151      9.2   855.0    0.00     718    63.8  
 127    8:30   72.2    12    4.3   145      8.7   854.9    0.00     749    63.8  
 127    8:40   72.9    12    4.8   112      9.1   854.9    0.00     779    63.9  
 127    8:50   73.1    11    5.2   165     11.3   854.8    0.00     808    64.0  
 127    9:00   73.2    11    6.1   154     11.9   854.7    0.00     835    64.1  
 127    9:10   72.9    11    5.6   166     11.9   854.7    0.00     861    64.2  
 127    9:20   74.0    11    6.4   137     12.1   854.7    0.00     886    64.4  
 127    9:30   73.8    11    5.3    93      9.9   854.7    0.00     910    64.6  
 127    9:40   74.6    11    6.0   124     14.0   854.7    0.00     931    64.9  
 127    9:50   75.1    11    6.1   163     13.1   854.6    0.00     950    65.2  
 127   10:00   75.4    11    5.5   121     12.0   854.6    0.00     968    65.4  
 127   10:10   75.3    11    4.6   168     11.6   854.5    0.00     984    65.7  
 127   10:20   75.6    11    7.5   175     19.0   854.5    0.00     998    66.0  
 127   10:30   75.8    11    5.8   158     12.8   854.4    0.00    1011    66.2  
 127   10:40   75.6    11    7.4   152     14.0   854.2    0.00    1022    66.5  
 127   10:50   76.4    11    5.6   173     13.2   854.1    0.00    1028    66.8  
 127   11:00   77.1    11    5.6   176     12.9   854.0    0.00    1036    67.1  
 127   11:10   76.3    11    7.9   173     16.2   853.9    0.00    1042    67.4  
 127   11:20   76.6    12    6.3   159     13.6   853.8    0.00    1046    67.6  
 127   11:30   76.9    12    7.2   175     15.2   853.6    0.00    1048    67.9  
 127   11:40   77.9    11    7.2   154     13.2   853.4    0.00    1048    68.3  
 127   11:50   78.4    11    9.4   186     16.1   853.2    0.00    1046    68.7  
 127   12:00   78.7    11    7.1   188     14.7   853.1    0.00    1042    69.0  
 127   12:10   78.9    11    5.2   184     11.5   853.1    0.00    1038    69.5  
 127   12:20   79.1    11    6.5   241     13.6   853.0    0.00    1031    70.1  
 127   12:30   79.4    11    4.2   258     14.9   852.9    0.00    1028    70.6  
 127   12:40   80.3    11    5.6   294     10.0   852.9    0.00    1024    71.1  
 127   12:50   79.9    11    5.8   286     13.8   852.8    0.00     995    71.6  
 127   13:00   80.0    11    7.1   259     16.3   852.6    0.00     993    72.1  
 127   13:10   79.9    10    6.0   236     13.6   852.5    0.00     980    72.5  
 127   13:20   80.0    10    4.7   238     16.6   852.4    0.00     967    72.9  
 127   13:30   80.0    11    7.0   263     16.5   852.2    0.00     951    73.4  
 127   13:40   80.3    11    5.7   235     12.8   852.1    0.00     947    73.9  
 127   13:50   80.0    11    7.4   320     14.6   851.9    0.00     946    74.3  
 127   14:00   81.2    10    6.7   256     17.4   851.7    0.00     926    74.7  
 127   14:10   81.8    10    6.8   257     15.1   851.6    0.00     899    75.2  
 127   14:20   81.0    10    5.9   245     14.1   851.5    0.00     870    75.6  
 127   14:30   80.9    10    7.1   227     18.2   851.3    0.00     831    75.9  
 127   14:40   81.4    10    7.6   232     14.6   851.2    0.00     808    76.2  
 127   14:50   80.5    10    8.6   238     16.1   851.1    0.00     783    76.5  
 127   15:00   80.9    10    8.7   231     16.0   850.9    0.00     755    76.7  
 127   15:10   81.0    10    8.8   210     17.0   850.8    0.00     713    77.1  
 127   15:20   81.6    10    6.6   239     14.9   850.8    0.00     671    77.4  
 127   15:30   81.5    10    7.1   234     14.0   850.7    0.00     635    77.7  
 127   15:40   81.6    10    7.1   246     13.4   850.6    0.00     600    77.9  
 127   15:50   81.6    10    5.8   252     13.1   850.7    0.00     564    78.1  
 127   16:00   81.0    10    8.5   229     14.1   850.6    0.00     525    78.3  
 127   16:10   81.1    10    7.4   232     13.0   850.5    0.00     488    78.4  
 127   16:20   81.1    10    6.8   230     13.3   850.5    0.00     452    78.5  
 127   16:30   81.3    10    5.8   244     11.7   850.4    0.00     417    78.6  
 127   16:40   80.8    10    7.3   240     12.2   850.4    0.00     375    78.7  
 127   16:50   80.5    10    6.8   226     11.9   850.4    0.00     357    78.7  
 127   17:00   80.6    10    6.7   207     10.9   850.3    0.00     327    78.7  
 127   17:10   79.7    10    5.8   216     10.6   850.3    0.00     177    78.6  
 127   17:20   78.9    10    5.4   222      9.5   850.3    0.00     178    78.4  
 127   17:30   78.6    10    5.3   222      9.8   850.3    0.00     159    78.3  
 127   17:40   79.0    10    5.0   215     10.0   850.3    0.00     165    78.2  
 127   17:50   78.3    10    4.5   211      7.4   850.3    0.00     130    78.2  
 127   18:00   77.6    11    4.5   205      7.5   850.3    0.00      91    78.0  
 127   18:10   76.5    11    5.5   207     11.0   850.3    0.00      39    77.9  
 127   18:20   74.8    11    4.2   215      7.7   850.3    0.00      15    77.6  
 127   18:30   73.2    12    3.6   247      5.1   850.4    0.00       9    77.3  
 127   18:40   71.8    13    3.9   250      6.7   850.4    0.00       5    77.1  
 127   18:50   72.2    12    3.7   226      5.7   850.5    0.00       2    76.9  
 127   19:00   72.2    12    4.0   232     10.3   850.6    0.00       1    76.8  
 127   19:10   73.0    12    4.7   248      9.6   850.7    0.00       0    76.8  
 127   19:20   70.4    13    4.4   291      6.2   850.8    0.00       0    76.7  
 127   19:30   69.0    14    4.2   277      8.4   850.9    0.00       0    76.4  
 127   19:40   70.8    13    3.4   264      7.6   851.0    0.00       0    76.2  
 127   19:50   70.5    13    3.1   275      8.4   851.1    0.00       0    76.1  
 127   20:00   69.1    14    2.4   289      5.3   851.2    0.00       0    75.9  
 127   20:10   68.5    14    3.0   294      4.9   851.3    0.00       0    75.6  

Return to Garden Spring, Nevada graphs page.


Western Regional Climate Center,wrcc@dri.edu